Time;durP1;ratioP1;P1;durP2;ratioP2;P2;SDS_P1;SDS_P2;PMS_P1;PMS_P2;Temp;Humidity;BMP_temperature;BMP_pressure;BME280_temperature;BME280_humidity;BME280_pressure;Samples;Min_cycle;Max_cycle;Signal;HPM_P1;HPM_P2
2023/07/11 00:00:03;;;;;;;9.83;9.03;;;25.30;11.30;;;;;;4938068;29;20433;-50
2023/07/11 00:02:29;;;;;;;10.57;9.80;;;25.20;11.10;;;;;;4938121;29;20423;-50
2023/07/11 00:04:57;;;;;;;10.90;9.90;;;25.20;11.30;;;;;;4938159;29;20569;-51
2023/07/11 00:07:22;;;;;;;11.53;10.50;;;25.20;11.20;;;;;;4938142;29;20423;-50
2023/07/11 00:09:48;;;;;;;11.40;10.60;;;25.20;11.30;;;;;;4937825;29;20429;-49
2023/07/11 00:12:15;;;;;;;11.60;10.80;;;25.20;11.20;;;;;;4938009;29;20655;-48
2023/07/11 00:14:40;;;;;;;10.53;9.83;;;25.20;11.60;;;;;;4953982;29;20433;-46
2023/07/11 00:17:06;;;;;;;11.33;10.43;;;25.20;11.60;;;;;;4938030;29;20419;-47
2023/07/11 00:19:50;;;;;;;11.40;10.60;;;25.20;11.70;;;;;;4937632;29;20242;-46
2023/07/11 00:22:17;;;;;;;10.90;10.10;;;25.10;11.60;;;;;;4955097;29;20183;-50
2023/07/11 00:24:42;;;;;;;12.70;11.43;;;25.10;11.80;;;;;;4937751;29;20887;-45
2023/07/11 00:27:10;;;;;;;12.10;11.30;;;25.10;11.70;;;;;;4955149;29;20419;-52
2023/07/11 00:29:37;;;;;;;12.93;11.83;;;25.00;12.00;;;;;;4954771;29;20179;-52
2023/07/11 00:32:03;;;;;;;9.73;8.83;;;24.90;12.00;;;;;;4937632;29;20411;-54
2023/07/11 00:34:29;;;;;;;13.00;12.10;;;24.90;12.10;;;;;;4937623;29;20966;-53
2023/07/11 00:36:54;;;;;;;11.57;10.60;;;24.90;12.20;;;;;;4953535;29;20454;-51
2023/07/11 00:39:20;;;;;;;13.10;12.10;;;25.00;12.40;;;;;;4937356;29;20230;-52
2023/07/11 00:41:46;;;;;;;14.63;13.43;;;25.00;12.40;;;;;;4937556;29;20187;-51
2023/07/11 00:44:16;;;;;;;14.20;12.83;;;24.90;12.30;;;;;;4936804;29;20254;-46
2023/07/11 00:46:43;;;;;;;15.10;14.00;;;24.90;12.00;;;;;;4954580;29;20454;-50
2023/07/11 00:49:11;;;;;;;14.70;13.40;;;24.90;12.00;;;;;;4937060;29;20411;-52
2023/07/11 00:51:43;;;;;;;14.67;13.43;;;24.90;12.10;;;;;;4937193;29;20912;-51
2023/07/11 00:54:13;;;;;;;14.47;13.37;;;24.90;12.30;;;;;;4937253;29;20493;-52
2023/07/11 00:56:43;;;;;;;14.90;13.63;;;24.90;12.30;;;;;;4937233;29;20431;-50
2023/07/11 00:59:09;;;;;;;14.37;13.27;;;24.90;12.20;;;;;;4937028;29;20906;-50
2023/07/11 01:01:36;;;;;;;14.40;13.20;;;24.90;12.30;;;;;;4937218;29;20797;-52
2023/07/11 01:04:03;;;;;;;16.17;14.87;;;24.90;12.40;;;;;;4937065;29;20501;-48
2023/07/11 01:06:30;;;;;;;14.87;13.50;;;24.90;12.40;;;;;;4937089;29;20419;-49
2023/07/11 01:08:58;;;;;;;16.07;14.77;;;24.90;12.40;;;;;;4936806;29;20422;-50
2023/07/11 01:11:27;;;;;;;13.83;12.73;;;24.90;12.50;;;;;;4936998;29;20473;-49
2023/07/11 01:13:53;;;;;;;12.07;11.10;;;24.80;12.90;;;;;;4936916;29;20850;-49
2023/07/11 01:16:19;;;;;;;13.43;12.33;;;24.80;13.00;;;;;;4937176;29;20656;-50
2023/07/11 01:18:45;;;;;;;13.83;12.63;;;24.80;13.20;;;;;;4936600;29;20935;-50
2023/07/11 01:21:18;;;;;;;12.83;11.90;;;24.80;13.20;;;;;;4936976;29;20190;-48
2023/07/11 01:23:44;;;;;;;14.70;13.50;;;24.80;13.30;;;;;;4936790;29;20470;-47
2023/07/11 01:26:11;;;;;;;13.10;12.10;;;24.80;13.40;;;;;;4936926;29;20424;-53
2023/07/11 01:28:38;;;;;;;13.27;12.17;;;24.70;13.40;;;;;;4936617;29;20458;-50
2023/07/11 01:31:04;;;;;;;12.67;11.63;;;24.70;13.70;;;;;;4936848;29;20419;-53
2023/07/11 01:33:30;;;;;;;13.40;12.03;;;24.70;13.90;;;;;;4936726;29;20435;-53
2023/07/11 01:35:56;;;;;;;12.43;11.63;;;24.60;14.10;;;;;;4936715;29;20785;-50
2023/07/11 01:38:24;;;;;;;13.60;12.37;;;24.60;14.40;;;;;;4936545;29;20208;-50
2023/07/11 01:40:50;;;;;;;13.10;12.00;;;24.60;14.50;;;;;;4936852;29;20555;-52
2023/07/11 01:43:17;;;;;;;11.80;10.90;;;24.60;14.60;;;;;;4936651;29;20463;-53
2023/07/11 01:45:43;;;;;;;13.70;12.70;;;24.60;14.60;;;;;;4936683;29;20784;-50
2023/07/11 01:48:09;;;;;;;13.53;12.43;;;24.60;14.70;;;;;;4936417;29;20513;-49
2023/07/11 01:50:35;;;;;;;11.87;10.97;;;24.50;14.70;;;;;;4936714;29;20411;-48
2023/07/11 01:53:01;;;;;;;12.20;11.30;;;24.50;14.70;;;;;;4936644;29;20179;-51
2023/07/11 01:55:27;;;;;;;11.90;11.10;;;24.50;14.60;;;;;;4937053;28;20815;-49
2023/07/11 01:57:52;;;;;;;11.83;11.00;;;24.50;14.60;;;;;;4940243;29;20190;-50
2023/07/11 02:00:18;;;;;;;12.13;11.33;;;24.50;14.70;;;;;;4940571;29;20595;-53
2023/07/11 02:02:44;;;;;;;12.17;11.37;;;24.50;14.70;;;;;;4940301;29;20699;-49
2023/07/11 02:05:10;;;;;;;12.17;11.33;;;24.50;14.80;;;;;;4940453;29;20469;-49
2023/07/11 02:07:35;;;;;;;13.07;11.57;;;24.50;14.90;;;;;;4940390;29;20179;-50
2023/07/11 02:10:01;;;;;;;12.17;11.10;;;24.50;15.00;;;;;;4940017;29;20274;-50
2023/07/11 02:12:27;;;;;;;12.67;11.67;;;24.50;15.10;;;;;;4940182;29;20183;-47
2023/07/11 02:14:52;;;;;;;12.70;11.70;;;24.50;15.10;;;;;;4940188;29;20358;-50
2023/07/11 02:17:18;;;;;;;11.23;10.43;;;24.40;15.20;;;;;;4940339;29;20188;-46
2023/07/11 02:19:46;;;;;;;13.87;12.73;;;24.40;15.40;;;;;;4939943;29;20270;-52
2023/07/11 02:22:12;;;;;;;13.07;12.10;;;24.40;15.50;;;;;;4940120;29;20264;-49
2023/07/11 02:24:41;;;;;;;12.57;11.47;;;24.30;15.60;;;;;;4940004;29;20521;-46
2023/07/11 02:27:08;;;;;;;12.57;11.50;;;24.30;15.70;;;;;;4939940;29;20465;-48
2023/07/11 02:29:34;;;;;;;14.07;12.67;;;24.30;15.80;;;;;;4939720;29;20411;-51
2023/07/11 02:31:59;;;;;;;12.03;11.13;;;24.30;15.90;;;;;;4939848;29;20777;-48
2023/07/11 02:34:25;;;;;;;13.40;12.20;;;24.30;16.00;;;;;;4939901;29;20430;-46
2023/07/11 02:36:51;;;;;;;13.60;12.47;;;24.20;15.90;;;;;;4939782;29;20210;-50
2023/07/11 02:39:17;;;;;;;14.23;13.23;;;24.30;16.00;;;;;;4939558;29;20193;-50
2023/07/11 02:41:43;;;;;;;13.80;12.73;;;24.20;15.90;;;;;;4939719;29;20179;-47
2023/07/11 02:44:09;;;;;;;14.43;13.37;;;24.20;15.90;;;;;;4939649;29;20473;-47
2023/07/11 02:46:35;;;;;;;14.13;13.13;;;24.20;15.90;;;;;;4939871;29;20187;-49
2023/07/11 02:49:01;;;;;;;14.07;12.97;;;24.20;16.50;;;;;;4955371;29;20833;-50
2023/07/11 02:51:27;;;;;;;12.70;11.73;;;24.20;15.90;;;;;;4939604;29;20426;-46
2023/07/11 02:53:53;;;;;;;13.80;12.70;;;24.20;15.90;;;;;;4956687;29;20186;-46
2023/07/11 02:56:19;;;;;;;13.53;12.53;;;24.10;15.90;;;;;;4939493;29;20454;-47
2023/07/11 02:58:46;;;;;;;14.93;13.63;;;24.10;15.90;;;;;;4939151;29;20427;-50
2023/07/11 03:01:12;;;;;;;14.10;13.10;;;24.10;15.90;;;;;;4939418;29;20431;-50
2023/07/11 03:03:38;;;;;;;14.00;12.90;;;24.10;15.90;;;;;;4939308;29;20832;-47
2023/07/11 03:06:03;;;;;;;13.63;12.40;;;24.10;15.90;;;;;;4939317;29;20430;-51
2023/07/11 03:08:29;;;;;;;14.70;13.57;;;24.10;15.90;;;;;;4938623;29;20179;-50
2023/07/11 03:11:00;;;;;;;14.40;13.30;;;24.10;16.00;;;;;;4939133;29;20254;-53
2023/07/11 03:13:25;;;;;;;13.80;12.77;;;24.10;16.10;;;;;;4939236;29;20589;-46
2023/07/11 03:15:51;;;;;;;13.90;12.70;;;24.00;16.20;;;;;;4939030;29;20423;-50
2023/07/11 03:18:17;;;;;;;13.90;12.90;;;24.00;16.30;;;;;;4938860;29;20664;-48
2023/07/11 03:20:43;;;;;;;14.40;13.30;;;24.00;16.30;;;;;;4938936;29;20671;-45
2023/07/11 03:23:11;;;;;;;13.40;12.50;;;24.00;16.10;;;;;;4938884;29;20214;-49
2023/07/11 03:25:37;;;;;;;13.70;12.70;;;24.00;15.90;;;;;;4939066;29;20287;-51
2023/07/11 03:28:03;;;;;;;14.97;13.87;;;24.00;15.80;;;;;;4938533;29;20995;-48
2023/07/11 03:30:31;;;;;;;14.50;13.50;;;24.00;15.80;;;;;;4939080;29;20502;-53
2023/07/11 03:32:56;;;;;;;15.00;14.00;;;24.00;15.80;;;;;;4938854;29;20456;-53
2023/07/11 03:35:22;;;;;;;15.83;14.63;;;24.00;15.80;;;;;;4938910;29;20554;-55
2023/07/11 03:37:48;;;;;;;18.10;16.77;;;24.00;15.80;;;;;;4938722;29;20648;-54
2023/07/11 03:40:15;;;;;;;14.30;13.23;;;23.90;16.00;;;;;;4938762;29;20675;-49
2023/07/11 03:42:41;;;;;;;16.43;15.13;;;23.90;16.10;;;;;;4938618;29;20508;-47
2023/07/11 03:45:07;;;;;;;14.77;13.70;;;23.90;16.20;;;;;;4938727;29;21036;-46
2023/07/11 03:47:32;;;;;;;15.00;13.80;;;23.90;16.20;;;;;;4938584;29;20176;-47
2023/07/11 03:49:58;;;;;;;14.80;13.70;;;23.90;16.10;;;;;;4938417;29;20427;-46
2023/07/11 03:52:24;;;;;;;14.63;13.53;;;23.90;16.30;;;;;;4938563;29;20175;-46
2023/07/11 03:54:49;;;;;;;14.57;13.57;;;23.90;16.40;;;;;;4938385;29;20242;-46
2023/07/11 03:57:16;;;;;;;15.60;14.30;;;23.90;16.40;;;;;;4938397;29;20652;-49
2023/07/11 03:59:42;;;;;;;15.77;14.57;;;23.70;16.40;;;;;;4938162;29;20183;-51
2023/07/11 04:02:07;;;;;;;14.93;13.93;;;23.70;16.50;;;;;;4938301;29;20522;-51
2023/07/11 04:04:33;;;;;;;16.47;15.17;;;23.80;16.70;;;;;;4938468;29;20214;-49
2023/07/11 04:06:59;;;;;;;15.67;14.50;;;23.70;16.70;;;;;;4938168;29;20171;-51
2023/07/11 04:09:24;;;;;;;17.80;16.40;;;23.70;16.80;;;;;;4938118;29;20176;-52
2023/07/11 04:11:50;;;;;;;16.27;14.97;;;23.70;16.70;;;;;;4938172;29;20182;-54
2023/07/11 04:14:15;;;;;;;15.63;14.27;;;23.70;16.70;;;;;;4938113;29;20201;-53
2023/07/11 04:16:41;;;;;;;15.73;14.53;;;23.70;17.30;;;;;;4938192;29;20274;-54
2023/07/11 04:19:06;;;;;;;16.00;14.90;;;23.70;16.80;;;;;;4936836;29;20269;-53
2023/07/11 04:21:32;;;;;;;15.33;14.33;;;23.70;16.90;;;;;;4955207;29;20187;-53
2023/07/11 04:23:58;;;;;;;16.10;14.50;;;23.70;16.90;;;;;;4937962;29;20211;-54
2023/07/11 04:26:23;;;;;;;16.93;15.37;;;23.70;16.80;;;;;;4938004;29;20179;-52
2023/07/11 04:28:49;;;;;;;15.80;14.60;;;23.80;16.90;;;;;;4937652;29;20180;-54
2023/07/11 04:31:14;;;;;;;16.70;15.30;;;23.80;16.90;;;;;;4937866;29;20216;-53
2023/07/11 04:33:40;;;;;;;17.33;16.07;;;23.80;17.10;;;;;;4937809;29;20190;-54
2023/07/11 04:36:12;;;;;;;16.80;15.40;;;23.80;16.90;;;;;;4937705;29;20183;-50
2023/07/11 04:38:38;;;;;;;16.50;14.73;;;23.70;17.20;;;;;;4937688;29;20185;-55
2023/07/11 04:41:05;;;;;;;14.70;13.53;;;23.70;17.20;;;;;;4937656;29;20419;-55
2023/07/11 04:43:33;;;;;;;15.50;14.40;;;23.70;17.40;;;;;;4937514;29;20462;-55
2023/07/11 04:46:00;;;;;;;11.80;11.13;;;23.70;18.00;;;;;;4946002;28;20783;-55
2023/07/11 04:48:26;;;;;;;11.90;11.20;;;23.70;17.40;;;;;;4971533;28;20410;-50
2023/07/11 04:51:03;;;;;;;12.67;11.57;;;23.60;17.70;;;;;;4955161;28;20410;-50
2023/07/11 04:53:30;;;;;;;12.40;11.70;;;23.60;17.80;;;;;;4972744;28;20421;-51
2023/07/11 04:56:02;;;;;;;12.60;11.80;;;23.70;17.70;;;;;;4972899;28;20422;-52
2023/07/11 04:58:31;;;;;;;12.93;12.00;;;23.70;17.60;;;;;;4972804;28;20418;-51
2023/07/11 05:01:04;;;;;;;14.00;13.10;;;23.70;17.70;;;;;;4972657;28;20434;-47
2023/07/11 05:03:30;;;;;;;12.47;11.73;;;23.80;17.80;;;;;;4953360;28;20494;-51
2023/07/11 05:05:57;;;;;;;12.90;11.90;;;23.80;17.70;;;;;;4972372;28;20418;-52
2023/07/11 05:08:23;;;;;;;12.90;12.10;;;23.80;17.70;;;;;;4972392;28;20946;-51
2023/07/11 05:11:01;;;;;;;13.40;12.40;;;23.80;17.30;;;;;;4972340;28;20898;-56
2023/07/11 05:13:28;;;;;;;13.10;12.10;;;23.80;17.50;;;;;;4972583;28;20422;-53
2023/07/11 05:16:02;;;;;;;13.07;12.17;;;23.70;17.70;;;;;;4972629;28;20786;-53
2023/07/11 05:18:28;;;;;;;12.60;11.90;;;23.80;17.80;;;;;;4972408;28;20441;-52
2023/07/11 05:20:55;;;;;;;15.07;14.07;;;23.70;17.70;;;;;;4972539;28;20476;-54
2023/07/11 05:23:23;;;;;;;15.00;13.60;;;23.80;17.80;;;;;;4972476;28;20835;-52
2023/07/11 05:25:49;;;;;;;15.07;13.77;;;23.80;17.40;;;;;;4972386;28;20414;-53
2023/07/11 05:28:16;;;;;;;14.27;13.07;;;23.80;17.50;;;;;;4973731;28;20840;-52
2023/07/11 05:30:41;;;;;;;15.10;13.90;;;23.80;17.60;;;;;;4972218;28;20261;-51
2023/07/11 05:33:07;;;;;;;13.17;12.17;;;23.80;17.50;;;;;;4972461;28;20565;-53
2023/07/11 05:35:37;;;;;;;13.80;12.70;;;23.80;17.30;;;;;;4972439;28;20450;-51
2023/07/11 05:38:03;;;;;;;13.90;12.73;;;23.80;17.30;;;;;;4972039;28;20179;-54
2023/07/11 05:40:30;;;;;;;14.27;13.07;;;23.90;17.10;;;;;;4972416;28;20448;-54
2023/07/11 05:42:56;;;;;;;13.67;12.67;;;23.90;17.00;;;;;;4972191;28;20815;-53
2023/07/11 05:45:22;;;;;;;12.90;11.90;;;24.00;17.30;;;;;;4972442;28;20512;-53
2023/07/11 05:47:47;;;;;;;12.70;11.90;;;24.00;17.10;;;;;;4972122;28;20256;-51
2023/07/11 05:50:13;;;;;;;12.40;11.60;;;24.10;17.10;;;;;;4972276;28;20261;-52
2023/07/11 05:52:38;;;;;;;13.27;12.30;;;24.10;17.10;;;;;;4970672;28;20900;-53
2023/07/11 05:55:04;;;;;;;12.77;11.70;;;24.10;17.20;;;;;;4936926;29;20175;-55
2023/07/11 05:57:30;;;;;;;13.90;12.40;;;24.10;17.20;;;;;;4937108;29;20207;-53
2023/07/11 05:59:55;;;;;;;13.83;12.80;;;24.20;17.40;;;;;;4936573;29;20419;-53
2023/07/11 06:02:21;;;;;;;13.77;12.67;;;24.20;17.40;;;;;;4952811;29;20175;-52
2023/07/11 06:04:47;;;;;;;12.50;11.70;;;24.20;17.00;;;;;;4936543;29;20207;-52
2023/07/11 06:07:12;;;;;;;13.00;12.10;;;24.20;17.20;;;;;;4936832;29;20181;-53
2023/07/11 06:09:38;;;;;;;14.13;13.13;;;24.30;17.20;;;;;;4948849;28;20648;-53
2023/07/11 06:12:04;;;;;;;13.40;12.40;;;24.30;17.30;;;;;;4955468;28;20280;-53
2023/07/11 06:14:29;;;;;;;12.33;11.50;;;24.30;17.40;;;;;;4960154;28;20527;-49
2023/07/11 06:16:55;;;;;;;12.97;11.87;;;24.40;17.30;;;;;;4951317;28;20414;-51
2023/07/11 06:19:21;;;;;;;13.90;12.53;;;24.40;17.20;;;;;;4955154;28;20190;-50
2023/07/11 06:21:46;;;;;;;17.10;12.57;;;24.40;17.20;;;;;;4955185;28;20636;-53
2023/07/11 06:24:12;;;;;;;13.47;12.30;;;24.50;17.10;;;;;;4954228;28;20211;-55
2023/07/11 06:26:38;;;;;;;12.10;11.30;;;24.60;16.90;;;;;;4954935;28;20182;-53
2023/07/11 06:29:03;;;;;;;13.07;12.07;;;24.60;16.90;;;;;;4954639;28;20186;-50
2023/07/11 06:31:29;;;;;;;12.60;11.57;;;24.60;16.90;;;;;;4955052;28;20273;-50
2023/07/11 06:33:56;;;;;;;12.37;11.57;;;24.70;16.80;;;;;;4954238;28;20274;-54
2023/07/11 06:36:21;;;;;;;13.80;12.33;;;24.80;16.50;;;;;;4970909;28;20648;-51
2023/07/11 06:38:47;;;;;;;13.27;11.97;;;24.80;16.80;;;;;;4970257;28;20425;-54
2023/07/11 06:41:13;;;;;;;12.67;11.90;;;24.70;16.90;;;;;;4967238;28;20265;-53
2023/07/11 06:43:38;;;;;;;13.33;12.10;;;24.80;17.30;;;;;;4951922;28;20211;-55
2023/07/11 06:46:04;;;;;;;13.43;12.03;;;24.80;17.10;;;;;;4953406;29;20179;-49
2023/07/11 06:48:31;;;;;;;12.50;11.47;;;24.80;17.30;;;;;;4953418;29;20188;-53
2023/07/11 06:51:02;;;;;;;12.50;11.37;;;24.80;16.30;;;;;;4953508;29;20175;-51
2023/07/11 06:53:30;;;;;;;13.10;12.10;;;24.90;16.80;;;;;;4953383;29;20473;-54
2023/07/11 06:55:56;;;;;;;12.90;12.03;;;24.90;16.40;;;;;;4953091;29;20441;-53
2023/07/11 06:58:23;;;;;;;13.70;12.90;;;24.90;16.40;;;;;;4954341;29;20431;-52
2023/07/11 07:00:58;;;;;;;12.17;11.17;;;25.00;16.50;;;;;;4954515;29;20477;-52
2023/07/11 07:03:23;;;;;;;12.80;11.80;;;25.00;16.50;;;;;;4954512;29;20476;-50
2023/07/11 07:05:55;;;;;;;12.20;11.00;;;25.00;16.50;;;;;;4954716;29;20984;-51
2023/07/11 07:08:22;;;;;;;13.23;12.13;;;25.10;16.50;;;;;;4954703;29;20171;-48
2023/07/11 07:10:49;;;;;;;12.23;11.30;;;25.10;16.50;;;;;;4954668;29;20415;-50
2023/07/11 07:13:16;;;;;;;12.57;11.77;;;25.30;16.40;;;;;;4954331;29;20427;-48
2023/07/11 07:15:45;;;;;;;11.83;11.03;;;25.30;16.20;;;;;;4954453;29;20506;-50
2023/07/11 07:18:11;;;;;;;13.13;12.03;;;25.30;16.20;;;;;;4954145;29;20487;-51
2023/07/11 07:20:36;;;;;;;12.90;12.00;;;25.40;15.90;;;;;;4954467;29;20455;-49
2023/07/11 07:23:05;;;;;;;12.40;11.10;;;25.50;15.80;;;;;;4954773;28;20294;-53
2023/07/11 07:25:31;;;;;;;11.87;11.03;;;25.60;15.20;;;;;;4973488;28;20179;-55
2023/07/11 07:27:57;;;;;;;13.03;11.77;;;25.70;15.40;;;;;;4957222;28;20430;-55
2023/07/11 07:30:23;;;;;;;10.47;9.67;;;25.80;15.50;;;;;;4957393;28;20437;-53
2023/07/11 07:32:49;;;;;;;11.30;10.60;;;25.90;15.40;;;;;;4956887;28;20418;-48
2023/07/11 07:35:15;;;;;;;12.67;11.47;;;25.90;15.30;;;;;;4957286;28;20647;-53
2023/07/11 07:37:41;;;;;;;11.10;10.30;;;26.10;14.80;;;;;;4957240;28;20174;-51
2023/07/11 07:40:07;;;;;;;11.67;10.60;;;26.20;14.50;;;;;;4957331;28;20205;-50
2023/07/11 07:42:33;;;;;;;11.83;10.50;;;26.20;14.30;;;;;;4957285;28;20182;-54
2023/07/11 07:44:58;;;;;;;13.30;11.50;;;26.20;14.40;;;;;;4972932;28;20462;-54
2023/07/11 07:47:24;;;;;;;11.47;10.70;;;26.20;14.20;;;;;;4957270;28;20198;-54
2023/07/11 07:49:49;;;;;;;12.47;11.40;;;26.30;14.50;;;;;;4957014;28;20679;-50
2023/07/11 07:52:15;;;;;;;12.03;11.10;;;26.30;14.40;;;;;;4957194;28;20171;-53
2023/07/11 07:54:41;;;;;;;11.47;10.40;;;26.40;14.30;;;;;;4955899;28;20187;-50
2023/07/11 07:57:06;;;;;;;11.40;10.50;;;26.40;14.30;;;;;;4944051;29;20194;-50
2023/07/11 07:59:32;;;;;;;11.10;10.43;;;26.40;14.00;;;;;;4937512;29;20211;-50
2023/07/11 08:01:58;;;;;;;11.37;10.67;;;26.50;13.80;;;;;;4938022;29;20209;-54
2023/07/11 08:04:23;;;;;;;11.67;10.87;;;26.50;13.80;;;;;;4953990;29;20211;-52
2023/07/11 08:06:49;;;;;;;11.80;10.90;;;26.60;13.70;;;;;;4954051;29;20179;-54
2023/07/11 08:09:14;;;;;;;10.93;10.23;;;26.60;14.00;;;;;;4937738;29;20536;-52
2023/07/11 08:11:43;;;;;;;11.97;11.17;;;26.60;13.60;;;;;;4938115;29;20211;-50
2023/07/11 08:14:09;;;;;;;11.10;10.40;;;26.70;13.50;;;;;;4937816;29;20575;-54
2023/07/11 08:16:37;;;;;;;11.33;10.53;;;26.80;13.40;;;;;;4937880;29;20426;-54
2023/07/11 08:19:06;;;;;;;10.60;10.00;;;26.80;13.40;;;;;;4937673;29;21007;-47
2023/07/11 08:21:33;;;;;;;12.87;11.77;;;27.10;12.80;;;;;;4937672;29;20430;-51
2023/07/11 08:23:58;;;;;;;11.60;10.77;;;27.30;12.60;;;;;;4937732;29;20895;-53
2023/07/11 08:26:24;;;;;;;12.20;11.30;;;27.40;12.20;;;;;;4950449;28;20453;-51
2023/07/11 08:28:51;;;;;;;11.10;10.10;;;27.60;11.90;;;;;;4954968;28;20183;-53
2023/07/11 08:31:16;;;;;;;10.87;10.13;;;27.70;11.70;;;;;;4954356;28;20225;-52
2023/07/11 08:33:43;;;;;;;10.97;10.13;;;27.80;11.60;;;;;;4937082;29;20439;-50
2023/07/11 08:36:09;;;;;;;11.03;10.33;;;27.90;11.80;;;;;;4936287;29;20553;-51
2023/07/11 08:38:34;;;;;;;12.67;11.70;;;27.80;11.90;;;;;;4937023;29;20415;-52
2023/07/11 08:41:29;;;;;;;11.37;10.37;;;27.80;11.80;;;;;;4937259;29;20792;-52
2023/07/11 08:43:59;;;;;;;11.47;10.80;;;27.80;11.80;;;;;;4916268;29;20215;-52
2023/07/11 08:46:27;;;;;;;11.93;11.27;;;27.90;11.80;;;;;;4937350;29;20555;-50
2023/07/11 08:49:00;;;;;;;14.97;10.87;;;28.10;11.60;;;;;;4937066;29;20415;-52
2023/07/11 08:51:26;;;;;;;13.10;12.10;;;28.40;11.10;;;;;;4937248;29;20422;-53
2023/07/11 08:54:00;;;;;;;12.17;11.27;;;28.60;10.80;;;;;;4937209;29;20786;-50
2023/07/11 08:56:29;;;;;;;13.07;11.93;;;28.70;10.90;;;;;;4937178;29;20194;-52
2023/07/11 08:58:59;;;;;;;11.90;11.20;;;28.80;10.60;;;;;;4936929;29;20526;-53
2023/07/11 09:01:31;;;;;;;12.23;11.17;;;29.00;10.20;;;;;;4937129;29;20462;-52
2023/07/11 09:03:59;;;;;;;10.83;10.23;;;29.20;10.20;;;;;;4935606;29;20807;-49
2023/07/11 09:06:32;;;;;;;10.90;10.17;;;29.30;10.40;;;;;;4934425;29;20414;-49
2023/07/11 09:08:59;;;;;;;11.47;10.57;;;29.30;9.80;;;;;;4936918;29;20423;-50
2023/07/11 09:11:52;;;;;;;12.10;11.17;;;29.50;9.90;;;;;;4956102;28;20449;-51
2023/07/11 09:14:42;;;;;;;12.47;11.63;;;29.60;10.90;;;;;;4971306;28;20509;-53
2023/07/11 09:17:22;;;;;;;11.90;11.10;;;29.50;11.10;;;;;;4955969;28;20422;-53
2023/07/11 09:19:53;;;;;;;10.83;10.13;;;29.50;11.30;;;;;;4970490;28;20442;-51
2023/07/11 09:23:06;;;;;;;12.73;11.93;;;29.70;10.70;;;;;;4954195;28;20894;-48
2023/07/11 09:25:39;;;;;;;11.37;10.60;;;29.70;10.30;;;;;;4954077;28;20422;-47
2023/07/11 09:28:24;;;;;;;12.50;11.63;;;29.70;10.50;;;;;;4954277;28;20504;-48
2023/07/11 09:30:56;;;;;;;11.87;11.07;;;29.90;9.80;;;;;;4954793;28;20762;-48
2023/07/11 09:33:46;;;;;;;11.30;10.60;;;29.90;10.10;;;;;;4955570;28;20405;-51
2023/07/11 09:36:21;;;;;;;11.53;10.67;;;30.00;9.50;;;;;;4956455;28;20472;-50
2023/07/11 09:39:16;;;;;;;12.03;11.03;;;30.20;9.20;;;;;;4956258;28;20410;-46
2023/07/11 09:41:52;;;;;;;11.30;10.60;;;30.20;9.30;;;;;;4956166;28;20410;-48
2023/07/11 09:44:18;;;;;;;13.10;12.10;;;30.10;9.60;;;;;;4955828;28;20603;-52
2023/07/11 09:46:43;;;;;;;11.40;10.80;;;30.30;8.70;;;;;;4955973;28;20501;-48
2023/07/11 09:49:19;;;;;;;11.60;10.60;;;30.50;8.40;;;;;;4955717;28;20175;-50
2023/07/11 09:51:49;;;;;;;11.80;11.07;;;30.60;8.40;;;;;;4955839;28;20522;-48
2023/07/11 09:54:27;;;;;;;11.60;10.80;;;30.70;8.10;;;;;;4955945;28;20426;-51
2023/07/11 09:56:55;;;;;;;12.30;11.33;;;30.80;7.90;;;;;;4956122;28;20429;-51
2023/07/11 09:59:21;;;;;;;12.13;11.43;;;30.90;7.90;;;;;;4956134;28;20410;-49
2023/07/11 10:01:53;;;;;;;11.97;11.27;;;31.00;7.70;;;;;;4955813;28;20487;-48
2023/07/11 10:04:23;;;;;;;11.80;11.10;;;31.10;7.50;;;;;;4955711;28;20461;-46
2023/07/11 10:06:52;;;;;;;13.03;12.03;;;31.10;7.50;;;;;;4955781;28;20918;-46
2023/07/11 10:09:32;;;;;;;12.70;12.00;;;31.20;7.10;;;;;;4955821;28;20468;-48
2023/07/11 10:12:01;;;;;;;11.50;10.80;;;31.30;7.20;;;;;;4956034;28;20457;-44
2023/07/11 10:14:40;;;;;;;11.90;11.10;;;31.30;7.10;;;;;;4955926;28;20421;-45
2023/07/11 10:17:25;;;;;;;13.23;12.37;;;31.50;6.50;;;;;;4955171;28;20525;-47
2023/07/11 10:19:56;;;;;;;11.57;10.47;;;31.60;6.40;;;;;;4959376;28;20425;-44
2023/07/11 10:22:26;;;;;;;11.93;11.23;;;31.70;6.70;;;;;;4959552;28;20414;-47
2023/07/11 10:25:01;;;;;;;12.47;11.47;;;31.90;5.20;;;;;;4977026;28;20800;-53
2023/07/11 10:27:31;;;;;;;11.10;10.50;;;32.20;4.90;;;;;;4959494;28;20459;-44
2023/07/11 10:30:00;;;;;;;12.10;11.40;;;32.50;4.40;;;;;;4959150;28;20406;-43
2023/07/11 10:32:33;;;;;;;12.90;12.00;;;32.70;3.90;;;;;;4959269;28;20414;-46
2023/07/11 10:35:02;;;;;;;12.47;11.40;;;32.50;4.20;;;;;;4959244;28;20417;-46
2023/07/11 10:37:41;;;;;;;12.23;11.17;;;32.50;4.20;;;;;;4959419;28;21120;-46
2023/07/11 10:40:28;;;;;;;11.67;10.77;;;32.50;4.30;;;;;;4976554;28;20747;-46
2023/07/11 10:43:10;;;;;;;11.63;10.83;;;32.60;4.40;;;;;;4958900;28;20985;-48
2023/07/11 10:45:40;;;;;;;16.73;15.20;;;32.60;4.40;;;;;;4959121;28;20414;-49
2023/07/11 10:48:23;;;;;;;12.43;11.63;;;32.60;4.50;;;;;;4958233;28;20425;-49
2023/07/11 10:50:57;;;;;;;12.23;11.43;;;32.80;4.70;;;;;;4959016;28;20429;-44
2023/07/11 10:53:25;;;;;;;12.53;11.57;;;33.00;4.40;;;;;;4958960;28;20931;-52
2023/07/11 10:56:05;;;;;;;11.87;11.17;;;33.20;3.90;;;;;;4958808;28;20513;-48
2023/07/11 10:58:32;;;;;;;12.50;11.37;;;33.20;4.10;;;;;;4958505;28;20429;-46
2023/07/11 11:01:27;;;;;;;12.07;11.27;;;33.00;4.20;;;;;;4958924;28;20939;-49
2023/07/11 11:04:13;;;;;;;11.97;11.17;;;32.80;5.30;;;;;;4974668;28;20454;-46
2023/07/11 11:07:03;;;;;;;12.77;12.07;;;32.70;5.00;;;;;;4958660;28;20426;-48
2023/07/11 11:09:38;;;;;;;13.80;12.77;;;32.60;5.00;;;;;;4958385;28;20952;-45
2023/07/11 11:12:23;;;;;;;12.97;12.17;;;32.60;5.20;;;;;;4957977;28;20423;-47
2023/07/11 11:14:55;;;;;;;14.10;13.27;;;32.50;5.40;;;;;;4939110;29;20435;-46
2023/07/11 11:17:37;;;;;;;16.20;14.70;;;32.40;5.70;;;;;;4939045;29;20433;-46
2023/07/11 11:20:53;;;;;;;12.43;11.57;;;32.50;5.70;;;;;;4938678;29;20964;-48
2023/07/11 11:23:41;;;;;;;13.37;12.57;;;32.80;5.10;;;;;;4938481;29;20474;-49
2023/07/11 11:26:25;;;;;;;13.80;12.53;;;32.80;5.20;;;;;;4954641;29;20850;-51
2023/07/11 11:29:19;;;;;;;15.03;13.83;;;32.90;5.00;;;;;;4952956;28;20419;-52
2023/07/11 11:32:07;;;;;;;12.27;11.57;;;33.00;5.10;;;;;;4954778;29;20478;-54
2023/07/11 11:34:47;;;;;;;11.87;11.13;;;32.80;5.20;;;;;;4938232;29;20422;-48
2023/07/11 11:37:44;;;;;;;13.30;12.40;;;32.90;5.20;;;;;;4953614;29;20449;-63
2023/07/11 11:40:15;;;;;;;13.30;12.50;;;33.10;4.80;;;;;;4954423;29;20423;-51
2023/07/11 11:42:44;;;;;;;12.13;11.33;;;33.10;4.70;;;;;;4938682;29;20786;-49
2023/07/11 11:45:22;;;;;;;12.20;11.43;;;33.10;4.80;;;;;;4938396;29;20459;-49
2023/07/11 11:47:49;;;;;;;13.20;12.13;;;33.20;4.40;;;;;;4938435;29;20499;-54
2023/07/11 11:50:18;;;;;;;12.00;11.30;;;33.30;4.10;;;;;;4938322;29;20415;-52
2023/07/11 11:52:44;;;;;;;12.10;11.30;;;33.30;4.10;;;;;;4938499;29;20462;-53
2023/07/11 11:55:31;;;;;;;13.10;12.10;;;33.10;4.60;;;;;;4938227;29;20419;-50
2023/07/11 11:57:57;;;;;;;12.30;11.60;;;33.00;4.60;;;;;;4959201;28;20431;-60
2023/07/11 12:00:35;;;;;;;11.63;10.60;;;33.20;3.70;;;;;;4953428;29;20502;-50
2023/07/11 12:03:00;;;;;;;12.20;11.40;;;33.30;3.80;;;;;;4952082;29;20426;-53
2023/07/11 12:05:26;;;;;;;12.57;11.60;;;33.40;3.90;;;;;;4953910;29;20415;-51
2023/07/11 12:08:16;;;;;;;12.63;11.63;;;33.40;4.50;;;;;;4953753;29;20179;-52
2023/07/11 12:11:06;;;;;;;13.20;12.23;;;33.20;4.40;;;;;;4953797;29;20190;-52
2023/07/11 12:13:34;;;;;;;12.33;11.30;;;33.00;4.90;;;;;;4953949;29;20423;-52
2023/07/11 12:16:08;;;;;;;13.00;12.20;;;33.20;4.90;;;;;;4953757;29;20419;-50
2023/07/11 12:18:38;;;;;;;13.83;12.87;;;33.10;4.90;;;;;;4953784;29;20478;-52
2023/07/11 12:21:31;;;;;;;13.97;12.93;;;33.00;5.20;;;;;;4953863;29;20514;-43
2023/07/11 12:24:24;;;;;;;12.17;11.43;;;32.90;5.20;;;;;;4953756;29;20466;-50
2023/07/11 12:26:52;;;;;;;13.30;12.40;;;32.90;5.20;;;;;;4953752;29;20463;-50
2023/07/11 12:29:46;;;;;;;13.03;12.13;;;32.70;5.40;;;;;;4953638;29;20902;-49
2023/07/11 12:32:33;;;;;;;14.07;13.00;;;32.60;5.50;;;;;;4953686;29;20423;-49
2023/07/11 12:35:04;;;;;;;12.97;12.17;;;32.30;6.00;;;;;;4953496;29;20433;-48
2023/07/11 12:37:46;;;;;;;13.50;12.60;;;32.20;6.70;;;;;;4953700;29;20561;-47
2023/07/11 12:40:12;;;;;;;11.73;11.00;;;32.30;6.20;;;;;;4952623;28;20422;-44
2023/07/11 12:43:03;;;;;;;12.73;11.83;;;32.60;5.50;;;;;;4953580;29;20967;-46